createdAt,value
2017-06-24T00:00:37.064Z,11.53
2017-06-24T00:03:04.652Z,13.27
2017-06-24T00:05:32.694Z,21.17
2017-06-24T00:08:00.306Z,13.13
2017-06-24T00:10:28.690Z,14.00
2017-06-24T00:12:56.804Z,14.17
2017-06-24T00:15:24.374Z,15.83
2017-06-24T00:17:52.700Z,12.50
2017-06-24T00:20:20.585Z,16.53
2017-06-24T00:22:48.161Z,15.30
2017-06-24T00:25:15.768Z,15.20
2017-06-24T00:27:43.580Z,13.87
2017-06-24T00:30:11.313Z,16.80
2017-06-24T00:32:38.901Z,16.70
2017-06-24T00:35:07.007Z,17.20
2017-06-24T00:37:34.702Z,18.63
2017-06-24T00:40:02.391Z,19.87
2017-06-24T00:42:31.018Z,20.03
2017-06-24T00:44:59.529Z,20.97
2017-06-24T00:47:27.856Z,21.10
2017-06-24T00:49:55.814Z,18.77
2017-06-24T00:52:23.374Z,21.57
2017-06-24T00:54:51.957Z,21.60
2017-06-24T00:57:20.525Z,21.47
2017-06-24T00:59:48.870Z,23.07
2017-06-24T01:02:16.455Z,21.50
2017-06-24T01:04:44.446Z,22.33
2017-06-24T01:07:12.027Z,19.70
2017-06-24T01:09:39.597Z,22.27
2017-06-24T01:12:07.538Z,21.10
2017-06-24T01:14:35.195Z,21.90
2017-06-24T01:17:02.890Z,20.30
2017-06-24T01:19:30.980Z,20.40
2017-06-24T01:21:58.574Z,19.23
2017-06-24T01:24:26.129Z,18.07
2017-06-24T01:26:54.027Z,19.37
2017-06-24T01:29:21.616Z,20.33
2017-06-24T01:31:49.707Z,22.17
2017-06-24T01:34:18.623Z,19.87
2017-06-24T01:36:46.259Z,21.30
2017-06-24T01:39:13.848Z,20.20
2017-06-24T01:41:42.348Z,22.33
2017-06-24T01:44:11.742Z,25.87
2017-06-24T01:46:41.127Z,26.87
2017-06-24T01:49:09.710Z,23.57
2017-06-24T01:51:37.385Z,28.43
2017-06-24T01:54:05.099Z,28.67
2017-06-24T01:56:33.327Z,28.87
2017-06-24T01:59:00.979Z,29.77
2017-06-24T02:01:28.883Z,31.30
2017-06-24T02:03:56.496Z,29.37
2017-06-24T02:06:24.937Z,29.77
2017-06-24T02:08:52.537Z,30.47
2017-06-24T02:11:20.411Z,31.40
2017-06-24T02:13:47.993Z,29.70
2017-06-24T02:16:15.622Z,30.23
2017-06-24T02:18:43.491Z,27.50
2017-06-24T02:21:11.865Z,26.90
2017-06-24T02:23:40.188Z,27.13
2017-06-24T02:26:08.489Z,25.33
2017-06-24T02:28:36.888Z,25.67
2017-06-24T02:31:04.484Z,25.80
2017-06-24T02:33:34.054Z,24.77
2017-06-24T02:36:01.804Z,25.40
2017-06-24T02:38:29.445Z,21.57
2017-06-24T02:40:57.366Z,23.43
2017-06-24T02:43:24.949Z,24.57
2017-06-24T02:45:52.524Z,25.37
2017-06-24T02:48:20.583Z,26.30
2017-06-24T02:50:48.966Z,24.50
2017-06-24T02:53:16.572Z,24.67
2017-06-24T02:55:45.258Z,24.57
2017-06-24T02:58:13.620Z,25.57
2017-06-24T03:00:41.329Z,23.87
2017-06-24T03:03:09.564Z,20.97
2017-06-24T03:05:37.239Z,21.10
2017-06-24T03:08:04.980Z,23.83
2017-06-24T03:10:33.453Z,21.40
2017-06-24T03:13:01.257Z,20.97
2017-06-24T03:15:28.884Z,21.33
2017-06-24T03:17:57.509Z,21.17
2017-06-24T03:20:25.070Z,22.00
2017-06-24T03:22:52.649Z,21.40
2017-06-24T03:25:21.010Z,20.03
2017-06-24T03:27:49.352Z,19.33
2017-06-24T03:30:16.920Z,20.00
2017-06-24T03:32:45.677Z,17.10
2017-06-24T03:35:13.722Z,20.60
2017-06-24T03:37:41.313Z,18.67
2017-06-24T03:40:09.752Z,16.57
2017-06-24T03:42:40.017Z,17.63
2017-06-24T03:45:07.589Z,16.00
2017-06-24T03:47:35.409Z,17.63
2017-06-24T03:50:03.036Z,17.07
2017-06-24T03:52:30.633Z,18.33
2017-06-24T03:54:59.077Z,16.40
2017-06-24T03:57:26.647Z,16.40
2017-06-24T03:59:54.225Z,18.20
2017-06-24T04:02:22.575Z,16.97
2017-06-24T04:04:50.910Z,18.50
2017-06-24T04:07:18.492Z,18.93
2017-06-24T04:09:47.353Z,20.87
2017-06-24T04:12:15.679Z,20.07
2017-06-24T04:14:43.248Z,22.30
2017-06-24T04:17:12.189Z,21.47
2017-06-24T04:19:39.750Z,23.57
2017-06-24T04:22:07.349Z,22.70
2017-06-24T04:24:35.019Z,22.17
2017-06-24T04:27:02.708Z,20.90
2017-06-24T04:29:32.082Z,21.90
2017-06-24T04:32:00.313Z,21.30
2017-06-24T04:34:27.895Z,23.03
2017-06-24T04:36:56.236Z,22.83
2017-06-24T04:39:23.927Z,20.63
2017-06-24T04:41:52.302Z,22.23
2017-06-24T04:44:19.875Z,24.83
2017-06-24T04:46:47.985Z,21.83
2017-06-24T04:49:16.319Z,21.17
2017-06-24T04:51:43.877Z,21.23
2017-06-24T04:54:11.539Z,20.93
2017-06-24T04:56:39.857Z,21.33
2017-06-24T04:59:07.429Z,20.10
2017-06-24T05:01:37.190Z,19.83
2017-06-24T05:04:04.838Z,17.93
2017-06-24T05:06:32.446Z,19.97
2017-06-24T05:09:01.153Z,17.77
2017-06-24T05:11:28.732Z,20.30
2017-06-24T05:13:57.080Z,17.10
2017-06-24T05:16:25.690Z,20.93
2017-06-24T05:18:53.768Z,17.00
2017-06-24T05:21:21.359Z,20.17
2017-06-24T05:23:49.271Z,19.00
2017-06-24T05:26:16.868Z,20.00
2017-06-24T05:28:45.208Z,18.10
2017-06-24T05:31:13.168Z,18.30
2017-06-24T05:33:41.546Z,17.23
2017-06-24T05:36:09.116Z,17.37
2017-06-24T05:38:38.466Z,15.47
2017-06-24T05:41:06.237Z,16.40
2017-06-24T05:43:34.867Z,14.47
2017-06-24T05:46:03.520Z,13.03
2017-06-24T05:48:31.113Z,12.40
2017-06-24T05:50:59.531Z,11.70
2017-06-24T05:53:27.832Z,10.10
2017-06-24T05:55:55.427Z,11.50
2017-06-24T05:58:23.035Z,10.07
2017-06-24T06:00:51.612Z,10.60
2017-06-24T06:03:19.954Z,9.67
2017-06-24T06:05:47.560Z,9.57
2017-06-24T06:08:15.453Z,9.23
2017-06-24T06:10:43.024Z,9.63
2017-06-24T06:13:10.613Z,8.90
2017-06-24T06:15:38.514Z,8.27
2017-06-24T06:18:06.914Z,6.80
2017-06-24T06:20:34.762Z,9.37
2017-06-24T06:23:02.609Z,8.10
2017-06-24T06:25:30.405Z,8.47
2017-06-24T06:27:57.988Z,7.83
2017-06-24T06:30:26.746Z,11.70
2017-06-24T06:32:55.069Z,13.20
2017-06-24T06:35:22.657Z,13.07
2017-06-24T06:37:50.355Z,14.47
2017-06-24T06:40:18.742Z,12.90
2017-06-24T06:42:46.373Z,15.47
2017-06-24T06:45:14.291Z,13.57
2017-06-24T06:47:41.890Z,15.10
2017-06-24T06:50:09.757Z,15.87
2017-06-24T06:52:38.579Z,14.80
2017-06-24T06:55:06.277Z,17.40
2017-06-24T06:57:34.746Z,17.30
2017-06-24T07:00:02.487Z,17.40
2017-06-24T07:02:30.182Z,19.03
2017-06-24T07:04:57.795Z,18.23
2017-06-24T07:07:27.119Z,17.23
2017-06-24T07:09:54.704Z,18.63
2017-06-24T07:12:22.260Z,18.43
2017-06-24T07:14:51.614Z,16.70
2017-06-24T07:17:19.235Z,17.20
2017-06-24T07:19:46.801Z,15.07
2017-06-24T07:22:14.741Z,15.07
2017-06-24T07:24:42.336Z,13.03
2017-06-24T07:27:10.840Z,14.20
2017-06-24T07:29:38.659Z,13.77
2017-06-24T07:32:06.426Z,14.00
2017-06-24T07:34:34.206Z,13.97
2017-06-24T07:37:02.386Z,15.20
2017-06-24T07:39:30.311Z,13.60
2017-06-24T07:41:58.012Z,15.13
2017-06-24T07:44:26.886Z,14.60
2017-06-24T07:46:55.226Z,15.70
2017-06-24T07:49:22.837Z,15.00
2017-06-24T07:51:50.893Z,13.73
2017-06-24T07:54:18.463Z,15.10
2017-06-24T07:56:46.026Z,13.50
2017-06-24T07:59:13.731Z,16.57
2017-06-24T08:01:41.603Z,17.40
2017-06-24T08:04:09.359Z,17.47
2017-06-24T08:06:39.106Z,20.10
2017-06-24T08:09:06.794Z,13.50
2017-06-24T08:11:34.834Z,14.83
2017-06-24T08:14:03.650Z,16.03
2017-06-24T08:16:32.310Z,13.67
2017-06-24T08:18:59.973Z,16.47
2017-06-24T08:21:28.545Z,16.30
2017-06-24T08:23:56.916Z,14.40
2017-06-24T08:26:25.244Z,15.57
2017-06-24T08:28:54.631Z,16.20
2017-06-24T08:31:22.276Z,15.33
2017-06-24T08:33:49.832Z,14.47
2017-06-24T08:36:18.515Z,15.60
2017-06-24T08:38:46.072Z,14.73
2017-06-24T08:41:14.452Z,14.17
2017-06-24T08:43:43.710Z,13.17
2017-06-24T08:46:11.320Z,15.93
2017-06-24T08:48:38.952Z,14.63
2017-06-24T08:51:06.824Z,15.00
2017-06-24T08:53:34.670Z,13.47
2017-06-24T08:56:02.604Z,13.30
2017-06-24T08:58:30.474Z,11.90
2017-06-24T09:00:58.105Z,12.97
2017-06-24T09:03:25.713Z,13.30
2017-06-24T09:05:53.308Z,12.17
2017-06-24T09:08:20.895Z,11.60
2017-06-24T09:10:49.245Z,13.23
2017-06-24T09:13:18.748Z,12.90
2017-06-24T09:15:47.144Z,12.03
2017-06-24T09:18:14.741Z,10.63
2017-06-24T09:20:42.813Z,10.23
2017-06-24T09:23:11.157Z,11.30
2017-06-24T09:25:38.990Z,9.20
2017-06-24T09:28:06.953Z,8.50
2017-06-24T09:30:35.815Z,8.07
2017-06-24T09:33:03.647Z,8.93
2017-06-24T09:35:31.707Z,8.73
2017-06-24T09:37:59.346Z,10.73
2017-06-24T09:40:26.936Z,10.03
2017-06-24T09:42:55.074Z,10.37
2017-06-24T09:45:22.714Z,9.73
2017-06-24T09:47:50.304Z,12.30
2017-06-24T09:50:18.419Z,12.67
2017-06-24T09:52:46.092Z,13.40
2017-06-24T09:55:14.534Z,13.90
2017-06-24T09:57:42.496Z,13.67
2017-06-24T10:00:10.101Z,13.00
2017-06-24T10:02:37.886Z,12.83
2017-06-24T10:05:06.280Z,12.00
2017-06-24T10:07:34.355Z,11.07
2017-06-24T10:10:02.430Z,12.53
2017-06-24T10:12:31.337Z,9.43
2017-06-24T10:14:58.998Z,12.80
2017-06-24T10:17:26.737Z,11.87
2017-06-24T10:19:54.594Z,15.43
2017-06-24T10:22:22.283Z,15.07
2017-06-24T10:24:49.904Z,15.07
2017-06-24T10:27:18.024Z,11.63
2017-06-24T10:29:46.741Z,11.67
2017-06-24T10:32:15.331Z,11.90
2017-06-24T10:34:43.413Z,12.40
2017-06-24T10:37:11.070Z,12.53
2017-06-24T10:39:38.867Z,12.77
2017-06-24T10:42:07.052Z,13.57
2017-06-24T10:44:34.683Z,11.50
2017-06-24T10:47:02.344Z,12.20
2017-06-24T10:49:30.695Z,12.33
2017-06-24T10:51:58.301Z,10.60
2017-06-24T10:54:25.893Z,12.87
2017-06-24T10:56:53.594Z,12.93
2017-06-24T10:59:21.204Z,14.33
2017-06-24T11:01:48.867Z,9.67
2017-06-24T11:04:16.636Z,13.07
2017-06-24T11:06:44.243Z,13.87
2017-06-24T11:09:47.954Z,13.60
2017-06-24T11:12:15.601Z,13.90
2017-06-24T11:14:43.168Z,13.30
2017-06-24T11:17:11.677Z,13.10
2017-06-24T11:19:39.418Z,13.33
2017-06-24T11:22:07.541Z,14.53
2017-06-24T11:24:35.777Z,13.50
2017-06-24T11:27:03.740Z,12.60
2017-06-24T11:29:31.699Z,11.87
2017-06-24T11:31:59.925Z,13.43
2017-06-24T11:34:27.504Z,13.60
2017-06-24T11:36:55.074Z,11.77
2017-06-24T11:39:23.497Z,12.03
2017-06-24T11:41:51.083Z,13.30
2017-06-24T11:44:18.644Z,10.40
2017-06-24T11:46:46.567Z,11.90
2017-06-24T11:49:14.259Z,11.00
2017-06-24T11:51:41.863Z,10.63
2017-06-24T11:54:10.622Z,11.10
2017-06-24T11:56:38.998Z,10.50
2017-06-24T11:59:07.378Z,10.40
2017-06-24T12:01:35.379Z,10.17
2017-06-24T12:04:03.801Z,11.83
2017-06-24T12:06:31.596Z,10.67
2017-06-24T12:09:00.766Z,12.17
2017-06-24T12:11:29.192Z,10.57
2017-06-24T12:13:56.804Z,11.30
2017-06-24T12:16:25.411Z,10.20
2017-06-24T12:18:53.758Z,10.10
2017-06-24T12:21:23.118Z,10.73
2017-06-24T12:23:51.645Z,9.93
2017-06-24T12:26:19.226Z,9.43
2017-06-24T12:28:46.816Z,10.60
2017-06-24T12:31:14.810Z,9.03
2017-06-24T12:33:43.427Z,9.70
2017-06-24T12:36:11.754Z,8.60
2017-06-24T12:38:39.796Z,9.30
2017-06-24T12:41:07.407Z,9.90
2017-06-24T12:43:35.078Z,9.33
2017-06-24T12:46:04.038Z,9.83
2017-06-24T12:48:31.696Z,6.10
2017-06-24T12:50:59.492Z,8.80
2017-06-24T12:53:27.472Z,7.20
2017-06-24T12:55:55.042Z,8.20
2017-06-24T12:58:22.688Z,8.20
2017-06-24T13:00:50.732Z,7.77
2017-06-24T13:03:18.290Z,8.13
2017-06-24T13:05:46.821Z,8.47
2017-06-24T13:08:14.796Z,9.40
2017-06-24T13:10:42.401Z,9.00
2017-06-24T13:13:10.010Z,7.73
2017-06-24T13:15:37.774Z,8.93
2017-06-24T13:18:05.481Z,10.57
2017-06-24T13:20:33.282Z,10.97
2017-06-24T13:23:01.461Z,9.80
2017-06-24T13:25:29.891Z,8.27
2017-06-24T13:27:57.520Z,8.80
2017-06-24T13:30:25.464Z,4.07
2017-06-24T13:32:53.058Z,4.27
2017-06-24T13:35:20.633Z,5.20
2017-06-24T13:37:49.137Z,3.90
2017-06-24T13:40:16.754Z,4.33
2017-06-24T13:42:44.385Z,3.40
2017-06-24T13:45:12.655Z,3.33
2017-06-24T13:47:41.091Z,3.20
2017-06-24T13:50:08.652Z,3.20
2017-06-24T13:52:37.898Z,2.60
2017-06-24T13:55:07.526Z,3.07
2017-06-24T13:57:35.143Z,2.73
2017-06-24T14:00:03.106Z,3.27
2017-06-24T14:02:30.776Z,2.67
2017-06-24T14:04:58.376Z,2.47
2017-06-24T14:07:26.902Z,1.70
2017-06-24T14:09:55.276Z,2.90
2017-06-24T14:12:22.844Z,3.03
2017-06-24T14:14:50.602Z,2.87
2017-06-24T14:17:18.160Z,2.07
2017-06-24T14:19:49.304Z,2.13
2017-06-24T14:22:17.069Z,2.33
2017-06-24T14:24:44.628Z,2.47
2017-06-24T14:27:13.964Z,2.00
2017-06-24T14:29:41.857Z,1.60
2017-06-24T14:32:10.181Z,1.47
2017-06-24T14:34:37.839Z,1.17
2017-06-24T14:37:06.192Z,1.33
2017-06-24T14:39:34.599Z,1.50
2017-06-24T14:42:03.013Z,1.60
2017-06-24T14:44:30.849Z,1.20
2017-06-24T14:46:58.458Z,1.93
2017-06-24T14:49:26.070Z,1.30
2017-06-24T14:51:55.013Z,1.40
2017-06-24T14:54:24.361Z,1.40
2017-06-24T14:56:51.988Z,1.70
2017-06-24T14:59:19.862Z,1.67
2017-06-24T15:01:48.193Z,1.97
2017-06-24T15:04:15.778Z,1.43
2017-06-24T15:06:44.548Z,1.30
2017-06-24T15:09:13.075Z,1.30
2017-06-24T15:11:40.810Z,1.40
2017-06-24T15:14:12.177Z,1.23
2017-06-24T15:16:40.326Z,1.70
2017-06-24T15:19:08.001Z,1.70
2017-06-24T15:21:37.730Z,1.90
2017-06-24T15:24:05.589Z,1.73
2017-06-24T15:26:33.309Z,1.10
2017-06-24T15:29:01.663Z,1.90
2017-06-24T15:31:29.400Z,2.77
2017-06-24T15:33:57.025Z,1.73
2017-06-24T15:36:25.020Z,1.37
2017-06-24T15:38:52.582Z,1.40
2017-06-24T15:41:20.143Z,1.77
2017-06-24T15:43:47.831Z,1.33
2017-06-24T15:46:16.263Z,2.00
2017-06-24T15:48:43.816Z,2.13
2017-06-24T15:51:11.557Z,1.80
2017-06-24T15:53:39.259Z,2.07
2017-06-24T15:56:07.167Z,1.43
2017-06-24T15:58:34.961Z,1.40
2017-06-24T16:01:02.590Z,1.97
2017-06-24T16:03:30.462Z,1.40
2017-06-24T16:05:58.162Z,4.47
2017-06-24T16:08:25.736Z,2.80
2017-06-24T16:10:54.057Z,2.10
2017-06-24T16:13:21.824Z,4.50
2017-06-24T16:15:49.448Z,3.50
2017-06-24T16:18:17.048Z,3.07
2017-06-24T16:20:46.457Z,2.67
2017-06-24T16:23:16.029Z,1.77
2017-06-24T16:25:43.759Z,1.50
2017-06-24T16:28:12.578Z,1.90
2017-06-24T16:30:40.284Z,1.90
2017-06-24T16:33:07.999Z,2.47
2017-06-24T16:35:36.637Z,1.73
2017-06-24T16:38:04.319Z,1.63
2017-06-24T16:40:32.181Z,2.17
2017-06-24T16:43:00.741Z,2.77
2017-06-24T16:45:29.166Z,1.87
2017-06-24T16:47:56.783Z,2.47
2017-06-24T16:50:25.845Z,1.67
2017-06-24T16:52:53.419Z,2.00
2017-06-24T16:55:20.984Z,1.40
2017-06-24T16:57:51.346Z,1.70
2017-06-24T17:00:20.594Z,2.40
2017-06-24T17:02:50.209Z,2.00
2017-06-24T17:05:17.897Z,1.97
2017-06-24T17:07:45.534Z,1.63
2017-06-24T17:10:13.844Z,1.43
2017-06-24T17:12:41.677Z,3.33
2017-06-24T17:15:09.446Z,2.97
2017-06-24T17:17:37.054Z,1.83
2017-06-24T17:20:04.880Z,1.20
2017-06-24T17:22:33.313Z,2.20
2017-06-24T17:25:00.944Z,1.40
2017-06-24T17:27:28.694Z,1.10
2017-06-24T17:29:56.265Z,1.40
2017-06-24T17:32:23.846Z,1.87
2017-06-24T17:34:52.208Z,2.07
2017-06-24T17:37:19.795Z,1.83
2017-06-24T17:39:47.445Z,2.07
2017-06-24T17:42:15.374Z,1.97
2017-06-24T17:44:43.035Z,1.80
2017-06-24T17:47:10.800Z,1.90
2017-06-24T17:49:38.982Z,1.67
2017-06-24T17:52:06.839Z,1.63
2017-06-24T17:54:35.342Z,2.77
2017-06-24T17:57:04.230Z,2.00
2017-06-24T17:59:32.845Z,1.43
2017-06-24T18:02:01.116Z,1.30
2017-06-24T18:04:30.439Z,1.97
2017-06-24T18:06:58.033Z,1.47
2017-06-24T18:09:25.616Z,2.27
2017-06-24T18:11:54.132Z,1.67
2017-06-24T18:14:21.694Z,3.30
2017-06-24T18:16:49.256Z,2.90
2017-06-24T18:19:19.974Z,2.80
2017-06-24T18:21:48.320Z,2.00
2017-06-24T18:24:15.910Z,1.80
2017-06-24T18:26:44.488Z,1.20
2017-06-24T18:29:12.342Z,2.27
2017-06-24T18:31:40.148Z,2.07
2017-06-24T18:34:08.117Z,1.87
2017-06-24T18:36:36.002Z,2.03
2017-06-24T18:39:04.584Z,1.80
2017-06-24T18:41:33.409Z,2.13
2017-06-24T18:44:01.333Z,1.60
2017-06-24T18:46:30.539Z,1.90
2017-06-24T18:48:58.812Z,1.80
2017-06-24T18:51:26.446Z,1.87
2017-06-24T18:53:54.127Z,1.60
2017-06-24T18:56:22.155Z,2.63
2017-06-24T18:58:49.738Z,3.10
2017-06-24T19:01:18.173Z,1.97
2017-06-24T19:03:46.290Z,1.70
2017-06-24T19:06:13.934Z,4.63
2017-06-24T19:08:41.992Z,2.17
2017-06-24T19:11:10.297Z,2.10
2017-06-24T19:13:37.990Z,2.60
2017-06-24T19:16:06.671Z,2.20
2017-06-24T19:18:34.696Z,1.63
2017-06-24T19:21:02.447Z,2.50
2017-06-24T19:23:30.145Z,2.40
2017-06-24T19:25:57.988Z,2.03
2017-06-24T19:28:26.330Z,3.00
2017-06-24T19:30:53.880Z,1.60
2017-06-24T19:33:23.112Z,1.40
2017-06-24T19:35:50.728Z,1.80
2017-06-24T19:38:19.077Z,2.57
2017-06-24T19:40:47.183Z,2.30
2017-06-24T19:43:14.877Z,2.50
2017-06-24T19:45:43.352Z,2.50
2017-06-24T19:48:12.673Z,2.47
2017-06-24T19:50:40.443Z,2.47
2017-06-24T19:53:08.038Z,2.57
2017-06-24T19:55:37.409Z,2.10
2017-06-24T19:58:05.016Z,3.30
2017-06-24T20:00:32.924Z,1.53
2017-06-24T20:03:01.632Z,2.63
2017-06-24T20:05:29.522Z,1.60
2017-06-24T20:07:57.872Z,4.40
2017-06-24T20:10:25.885Z,1.73
2017-06-24T20:12:53.502Z,2.17
2017-06-24T20:15:21.167Z,2.60
2017-06-24T20:17:48.984Z,2.57
2017-06-24T20:20:16.697Z,7.27
2017-06-24T20:22:44.806Z,3.20
2017-06-24T20:25:13.976Z,2.40
2017-06-24T20:27:41.908Z,3.47
2017-06-24T20:30:09.669Z,2.93
2017-06-24T20:32:38.793Z,3.53
2017-06-24T20:35:06.543Z,2.50
2017-06-24T20:37:34.450Z,2.90
2017-06-24T20:40:03.393Z,2.83
2017-06-24T20:42:31.096Z,2.13
2017-06-24T20:44:58.739Z,2.80
2017-06-24T20:47:29.635Z,3.60
2017-06-24T20:49:57.232Z,2.60
2017-06-24T20:52:24.804Z,2.90
2017-06-24T20:54:53.387Z,2.83
2017-06-24T20:57:21.019Z,2.73
2017-06-24T20:59:48.602Z,2.97
2017-06-24T21:02:16.796Z,2.83
2017-06-24T21:04:44.545Z,4.10
2017-06-24T21:07:12.119Z,3.53
2017-06-24T21:09:39.995Z,3.30
2017-06-24T21:12:07.656Z,3.33
2017-06-24T21:14:35.391Z,3.30
2017-06-24T21:17:04.794Z,2.50
2017-06-24T21:19:33.415Z,2.90
2017-06-24T21:22:01.303Z,2.63
2017-06-24T21:24:30.029Z,3.00
2017-06-24T21:26:58.564Z,2.47
2017-06-24T21:29:27.184Z,4.33
2017-06-24T21:31:55.103Z,3.23
2017-06-24T21:34:23.457Z,2.97
2017-06-24T21:36:51.819Z,3.10
2017-06-24T21:39:20.888Z,3.67
2017-06-24T21:41:48.445Z,3.27
2017-06-24T21:44:17.104Z,3.50
2017-06-24T21:46:45.942Z,6.47
2017-06-24T21:49:13.526Z,3.50
2017-06-24T21:51:41.906Z,3.80
2017-06-24T21:54:10.781Z,3.80
2017-06-24T21:56:39.330Z,4.40
2017-06-24T21:59:07.704Z,3.10
2017-06-24T22:01:36.394Z,3.80
2017-06-24T22:04:04.014Z,3.20
2017-06-24T22:06:32.053Z,4.17
2017-06-24T22:09:00.710Z,4.60
2017-06-24T22:11:28.347Z,3.30
2017-06-24T22:13:56.000Z,2.93
2017-06-24T22:16:24.313Z,4.13
2017-06-24T22:18:52.659Z,5.40
2017-06-24T22:21:21.045Z,5.57
2017-06-24T22:23:49.104Z,5.80
2017-06-24T22:26:16.694Z,5.00
2017-06-24T22:28:44.254Z,3.80
2017-06-24T22:31:12.150Z,4.20
2017-06-24T22:33:39.808Z,4.83
2017-06-24T22:36:07.449Z,4.27
2017-06-24T22:38:35.513Z,4.90
2017-06-24T22:41:03.253Z,5.50
2017-06-24T22:43:30.892Z,5.00
2017-06-24T22:45:59.010Z,5.13
2017-06-24T22:48:26.619Z,4.37
2017-06-24T22:50:54.179Z,5.23
2017-06-24T22:53:22.100Z,5.23
2017-06-24T22:55:49.656Z,5.07
2017-06-24T22:58:18.139Z,5.27
2017-06-24T23:00:46.875Z,5.50
2017-06-24T23:03:14.513Z,5.63
2017-06-24T23:05:42.132Z,5.60
2017-06-24T23:08:10.868Z,7.30
2017-06-24T23:10:38.498Z,6.57
2017-06-24T23:13:06.110Z,6.30
2017-06-24T23:15:34.793Z,5.53
2017-06-24T23:18:02.764Z,5.63
2017-06-24T23:20:30.800Z,5.27
2017-06-24T23:22:58.492Z,6.17
2017-06-24T23:25:26.145Z,5.77
2017-06-24T23:27:53.708Z,5.87
2017-06-24T23:30:21.866Z,6.53
2017-06-24T23:32:49.453Z,6.30
2017-06-24T23:35:17.086Z,5.73
2017-06-24T23:37:46.574Z,8.27
2017-06-24T23:40:14.926Z,7.03
2017-06-24T23:42:42.507Z,7.77
2017-06-24T23:45:10.310Z,7.27
2017-06-24T23:47:37.955Z,6.60
2017-06-24T23:50:05.821Z,7.13
2017-06-24T23:52:34.629Z,8.13
2017-06-24T23:55:02.506Z,8.70
2017-06-24T23:57:30.173Z,8.23
2017-06-24T23:59:58.051Z,8.33
